createdAt,value
2022-12-29T00:00:08.358Z,9.10
2022-12-29T00:02:46.778Z,9.70
2022-12-29T00:05:19.205Z,9.63
2022-12-29T00:07:51.576Z,8.98
2022-12-29T00:10:25.218Z,8.83
2022-12-29T00:13:15.921Z,9.03
2022-12-29T00:15:48.284Z,9.00
2022-12-29T00:18:20.595Z,8.45
2022-12-29T00:21:11.064Z,9.33
2022-12-29T00:24:00.984Z,9.25
2022-12-29T00:26:50.838Z,8.80
2022-12-29T00:29:40.935Z,9.58
2022-12-29T00:32:31.069Z,8.98
2022-12-29T00:35:12.257Z,8.85
2022-12-29T00:38:07.084Z,9.88
2022-12-29T00:40:57.491Z,10.32
2022-12-29T00:43:47.248Z,9.93
2022-12-29T00:46:20.422Z,10.13
2022-12-29T00:49:11.688Z,9.88
2022-12-29T00:51:44.519Z,10.13
2022-12-29T00:54:17.125Z,9.53
2022-12-29T00:56:52.051Z,10.08
2022-12-29T00:59:25.288Z,9.73
2022-12-29T01:01:57.813Z,9.63
2022-12-29T01:04:30.380Z,8.55
2022-12-29T01:07:03.326Z,9.80
2022-12-29T01:09:53.919Z,8.38
2022-12-29T01:12:46.435Z,8.23
2022-12-29T01:15:18.815Z,8.18
2022-12-29T01:17:51.528Z,8.05
2022-12-29T01:20:23.979Z,8.68
2022-12-29T01:22:56.369Z,9.03
2022-12-29T01:25:29.939Z,8.83
2022-12-29T01:28:04.101Z,7.53
2022-12-29T01:30:37.181Z,8.53
2022-12-29T01:33:10.408Z,8.03
2022-12-29T01:35:44.613Z,7.95
2022-12-29T01:38:16.975Z,8.45
2022-12-29T01:40:50.675Z,7.30
2022-12-29T01:43:23.327Z,7.78
2022-12-29T01:45:55.788Z,7.62
2022-12-29T01:48:28.197Z,7.42
2022-12-29T01:51:00.687Z,7.17
2022-12-29T01:53:34.213Z,8.23
2022-12-29T01:56:09.517Z,7.63
2022-12-29T01:58:44.257Z,7.50
2022-12-29T02:01:17.327Z,7.33
2022-12-29T02:03:50.966Z,7.33
2022-12-29T02:09:25.660Z,8.68
2022-12-29T02:11:58.525Z,7.30
2022-12-29T02:14:31.524Z,7.47
2022-12-29T02:17:29.961Z,7.28
2022-12-29T02:20:28.926Z,7.12
2022-12-29T02:23:41.811Z,7.55
2022-12-29T02:26:33.831Z,7.90
2022-12-29T02:29:14.196Z,7.53
2022-12-29T02:32:26.643Z,7.33
2022-12-29T02:35:32.092Z,6.85
2022-12-29T02:38:41.528Z,6.92
2022-12-29T02:41:21.885Z,7.35
2022-12-29T02:44:10.966Z,7.53
2022-12-29T02:46:50.397Z,7.42
2022-12-29T02:49:29.595Z,8.13
2022-12-29T02:52:19.033Z,7.42
2022-12-29T02:54:52.151Z,7.40
2022-12-29T02:57:29.363Z,8.33
2022-12-29T03:00:08.876Z,7.42
2022-12-29T03:03:01.351Z,7.50
2022-12-29T03:06:13.875Z,6.92
2022-12-29T03:09:02.769Z,7.80
2022-12-29T03:11:57.631Z,8.03
2022-12-29T03:14:51.571Z,7.50
2022-12-29T03:17:52.503Z,7.30
2022-12-29T03:20:29.180Z,7.65
2022-12-29T03:23:03.955Z,7.42
2022-12-29T03:25:42.625Z,7.92
2022-12-29T03:28:24.124Z,7.20
2022-12-29T03:30:57.192Z,7.33
2022-12-29T03:33:31.101Z,7.80
2022-12-29T03:36:08.364Z,7.17
2022-12-29T03:38:52.097Z,7.20
2022-12-29T03:41:28.091Z,7.85
2022-12-29T03:44:01.941Z,7.60
2022-12-29T03:46:35.250Z,7.62
2022-12-29T03:49:08.257Z,8.10
2022-12-29T03:51:40.883Z,8.63
2022-12-29T03:54:13.769Z,8.23
2022-12-29T03:56:46.635Z,8.20
2022-12-29T03:59:19.888Z,8.37
2022-12-29T04:01:52.720Z,8.58
2022-12-29T04:04:25.229Z,7.62
2022-12-29T04:06:58.329Z,8.78
2022-12-29T04:09:32.441Z,8.33
2022-12-29T04:12:05.687Z,8.55
2022-12-29T04:14:40.096Z,8.25
2022-12-29T04:17:12.529Z,8.00
2022-12-29T04:19:46.484Z,8.95
2022-12-29T04:22:19.008Z,8.20
2022-12-29T04:24:51.478Z,8.95
2022-12-29T04:27:23.978Z,8.60
2022-12-29T04:30:14.836Z,8.90
2022-12-29T04:32:49.223Z,7.97
2022-12-29T04:35:21.932Z,8.33
2022-12-29T04:37:55.468Z,9.73
2022-12-29T04:40:28.196Z,8.98
2022-12-29T04:43:00.522Z,9.00
2022-12-29T04:45:34.321Z,9.70
2022-12-29T04:48:08.881Z,8.98
2022-12-29T04:50:59.854Z,8.25
2022-12-29T04:53:34.011Z,9.33
2022-12-29T04:56:07.021Z,9.93
2022-12-29T04:58:40.286Z,10.28
2022-12-29T05:01:13.583Z,10.00
2022-12-29T05:03:46.551Z,9.28
2022-12-29T05:06:19.671Z,10.23
2022-12-29T05:08:52.120Z,11.63
2022-12-29T05:11:26.068Z,10.68
2022-12-29T05:14:00.351Z,11.08
2022-12-29T05:16:33.372Z,11.65
2022-12-29T05:19:06.613Z,10.95
2022-12-29T05:21:41.532Z,10.23
2022-12-29T05:24:14.436Z,11.00
2022-12-29T05:26:47.444Z,10.53
2022-12-29T05:29:38.202Z,10.65
2022-12-29T05:32:10.838Z,11.10
2022-12-29T05:34:43.772Z,11.10
2022-12-29T05:37:16.666Z,10.60
2022-12-29T05:39:51.443Z,11.53
2022-12-29T05:42:24.534Z,10.53
2022-12-29T05:44:59.203Z,9.98
2022-12-29T05:47:49.734Z,10.43
2022-12-29T05:50:42.137Z,10.20
2022-12-29T05:53:16.483Z,10.70
2022-12-29T05:55:50.298Z,9.08
2022-12-29T05:58:23.219Z,10.65
2022-12-29T06:00:57.079Z,10.48
2022-12-29T06:03:30.324Z,9.00
2022-12-29T06:06:04.235Z,9.83
2022-12-29T06:08:37.310Z,9.63
2022-12-29T06:11:10.086Z,10.40
2022-12-29T06:13:44.321Z,10.10
2022-12-29T06:16:18.211Z,10.72
2022-12-29T06:21:34.957Z,9.80
2022-12-29T06:24:08.749Z,11.28
2022-12-29T06:26:43.118Z,10.55
2022-12-29T06:29:17.499Z,10.10
2022-12-29T06:31:50.645Z,10.38
2022-12-29T06:34:23.382Z,11.38
2022-12-29T06:36:56.548Z,10.95
2022-12-29T06:39:29.174Z,10.72
2022-12-29T06:42:04.161Z,11.18
2022-12-29T06:44:48.724Z,11.48
2022-12-29T06:47:22.413Z,11.08
2022-12-29T06:49:55.237Z,11.60
2022-12-29T06:52:30.122Z,12.23
2022-12-29T06:55:02.813Z,11.08
2022-12-29T06:57:35.688Z,11.08
2022-12-29T07:00:10.450Z,12.53
2022-12-29T07:02:44.035Z,11.70
2022-12-29T07:16:54.642Z,11.25
2022-12-29T07:19:27.778Z,12.47
2022-12-29T07:22:00.514Z,12.58
2022-12-29T07:24:33.730Z,12.73
2022-12-29T07:27:07.363Z,12.70
2022-12-29T07:29:40.570Z,13.25
2022-12-29T07:32:13.552Z,12.33
2022-12-29T07:34:47.950Z,12.75
2022-12-29T07:37:21.155Z,12.53
2022-12-29T07:39:53.879Z,12.53
2022-12-29T07:42:26.483Z,13.45
2022-12-29T07:44:59.863Z,14.05
2022-12-29T07:47:34.366Z,13.90
2022-12-29T07:50:08.853Z,14.73
2022-12-29T07:52:41.471Z,15.93
2022-12-29T07:55:14.112Z,15.95
2022-12-29T07:57:46.686Z,15.45
2022-12-29T08:00:19.679Z,14.98
2022-12-29T08:02:52.399Z,16.07
2022-12-29T08:05:24.986Z,15.13
2022-12-29T08:07:58.072Z,16.75
2022-12-29T08:10:30.528Z,16.37
2022-12-29T08:13:03.091Z,15.58
2022-12-29T08:15:35.908Z,15.25
2022-12-29T08:18:08.473Z,14.35
2022-12-29T08:20:41.067Z,14.73
2022-12-29T08:23:13.601Z,14.73
2022-12-29T08:25:46.102Z,13.93
2022-12-29T08:28:18.621Z,14.93
2022-12-29T08:30:51.175Z,14.07
2022-12-29T08:33:23.676Z,15.32
2022-12-29T08:36:02.275Z,13.90
2022-12-29T08:38:35.148Z,14.60
2022-12-29T08:41:07.846Z,13.03
2022-12-29T08:43:40.695Z,13.50
2022-12-29T08:46:13.481Z,13.48
2022-12-29T08:48:46.509Z,14.15
2022-12-29T08:51:23.003Z,14.58
2022-12-29T08:53:53.079Z,13.60
2022-12-29T08:56:25.912Z,14.73
2022-12-29T08:58:59.338Z,14.40
2022-12-29T09:01:34.875Z,14.93
2022-12-29T09:04:16.731Z,15.53
2022-12-29T09:09:13.819Z,13.72
2022-12-29T09:11:47.578Z,14.00
2022-12-29T09:14:20.494Z,14.68
2022-12-29T09:17:13.371Z,13.70
2022-12-29T09:19:46.068Z,14.45
2022-12-29T09:22:19.171Z,14.80
2022-12-29T09:24:51.816Z,14.15
2022-12-29T09:27:25.116Z,13.60
2022-12-29T09:29:57.962Z,12.85
2022-12-29T09:32:33.857Z,14.05
2022-12-29T09:35:05.854Z,13.28
2022-12-29T09:37:38.497Z,14.70
2022-12-29T09:40:22.188Z,13.62
2022-12-29T09:43:29.959Z,13.57
2022-12-29T09:46:13.278Z,13.75
2022-12-29T09:48:50.281Z,12.88
2022-12-29T09:51:25.883Z,12.88
2022-12-29T09:54:09.517Z,11.68
2022-12-29T09:56:41.896Z,12.98
2022-12-29T09:59:21.402Z,13.50
2022-12-29T10:02:16.899Z,13.38
2022-12-29T10:04:49.443Z,14.35
2022-12-29T10:07:30.012Z,14.07
2022-12-29T10:10:21.205Z,14.13
2022-12-29T10:13:25.524Z,14.23
2022-12-29T10:16:31.070Z,13.32
2022-12-29T10:19:33.601Z,13.78
2022-12-29T10:22:31.936Z,13.90
2022-12-29T10:25:06.169Z,14.83
2022-12-29T10:27:38.739Z,15.18
2022-12-29T10:30:14.778Z,16.05
2022-12-29T10:32:57.173Z,15.10
2022-12-29T10:35:41.658Z,16.70
2022-12-29T10:38:36.590Z,16.55
2022-12-29T10:41:42.644Z,16.55
2022-12-29T10:44:18.207Z,18.12
2022-12-29T10:46:55.602Z,16.73
2022-12-29T10:49:28.945Z,17.57
2022-12-29T10:52:03.257Z,17.10
2022-12-29T10:55:03.018Z,18.10
2022-12-29T10:57:46.716Z,16.90
2022-12-29T11:00:23.489Z,16.52
2022-12-29T11:03:13.520Z,16.35
2022-12-29T11:06:08.714Z,14.50
2022-12-29T11:08:46.600Z,15.28
2022-12-29T20:01:49.060Z,13.28
2022-12-29T20:04:21.691Z,12.60
2022-12-29T20:06:54.537Z,13.98
2022-12-29T20:09:27.135Z,12.78
2022-12-29T20:11:59.534Z,13.55
2022-12-29T20:14:32.492Z,14.68
2022-12-29T20:17:11.823Z,14.10
2022-12-29T20:19:41.707Z,14.47
2022-12-29T20:22:14.207Z,14.03
2022-12-29T20:24:50.168Z,13.08
2022-12-29T20:27:21.197Z,13.95
2022-12-29T20:29:54.327Z,14.93
2022-12-29T20:32:26.937Z,14.35
2022-12-29T20:34:59.386Z,14.15
2022-12-29T20:37:32.776Z,14.40
2022-12-29T20:40:05.469Z,13.80
2022-12-29T20:42:37.997Z,13.00
2022-12-29T20:45:10.799Z,14.38
2022-12-29T20:47:43.448Z,13.22
2022-12-29T20:50:15.833Z,14.15
2022-12-29T20:52:48.685Z,14.70
2022-12-29T20:55:21.397Z,13.93
2022-12-29T21:00:29.921Z,12.65
2022-12-29T21:03:02.351Z,12.78
2022-12-29T21:05:36.629Z,13.03
2022-12-29T21:08:22.330Z,14.20
2022-12-29T21:10:55.056Z,12.65
2022-12-29T21:13:28.215Z,12.88
2022-12-29T21:16:03.441Z,13.38
2022-12-29T21:18:36.239Z,12.80
2022-12-29T21:21:13.312Z,13.35
2022-12-29T21:23:45.787Z,12.85
2022-12-29T21:26:21.442Z,12.40
2022-12-29T21:28:55.003Z,12.68
2022-12-29T21:31:30.692Z,13.00
2022-12-29T21:34:05.205Z,11.60
2022-12-29T21:36:37.613Z,12.55
2022-12-29T21:39:10.484Z,13.35
2022-12-29T21:41:43.256Z,12.65
2022-12-29T21:44:33.290Z,12.28
2022-12-29T21:47:06.168Z,13.18
2022-12-29T21:49:38.743Z,13.53
2022-12-29T21:52:11.294Z,14.50
2022-12-29T21:55:01.743Z,13.58
2022-12-29T21:57:52.327Z,13.95
2022-12-29T22:00:35.388Z,13.08
2022-12-29T22:03:25.774Z,13.53
2022-12-29T22:06:15.816Z,12.98
2022-12-29T22:09:06.879Z,13.85
2022-12-29T22:11:57.290Z,13.85
2022-12-29T22:14:30.252Z,14.30
2022-12-29T22:17:02.860Z,13.48
2022-12-29T22:19:35.345Z,13.40
2022-12-29T22:22:07.863Z,13.15
2022-12-29T22:24:40.475Z,13.03
2022-12-29T22:27:13.306Z,14.30
2022-12-29T22:29:46.503Z,15.43
2022-12-29T22:32:19.105Z,13.95
2022-12-29T22:34:51.447Z,13.22
2022-12-29T22:37:24.479Z,13.85
2022-12-29T22:39:56.786Z,12.80
2022-12-29T22:42:29.169Z,12.43
2022-12-29T22:45:01.590Z,13.68
2022-12-29T22:47:34.656Z,12.80
2022-12-29T22:50:08.455Z,13.13
2022-12-29T22:52:42.144Z,13.28
2022-12-29T22:55:14.577Z,14.20
2022-12-29T22:57:47.325Z,13.65
2022-12-29T23:00:20.669Z,13.83
2022-12-29T23:02:53.580Z,13.85
2022-12-29T23:05:26.908Z,14.10
2022-12-29T23:07:59.411Z,13.85
2022-12-29T23:10:32.743Z,14.28
2022-12-29T23:13:06.463Z,13.60
2022-12-29T23:15:40.464Z,14.28
2022-12-29T23:18:13.874Z,13.43
2022-12-29T23:20:46.566Z,13.40
2022-12-29T23:23:46.242Z,13.28
2022-12-29T23:26:13.167Z,14.23
2022-12-29T23:28:45.619Z,14.53
2022-12-29T23:31:18.421Z,14.60
2022-12-29T23:33:50.922Z,14.10
2022-12-29T23:36:25.245Z,14.50
2022-12-29T23:38:57.926Z,13.75
2022-12-29T23:41:30.640Z,14.93
2022-12-29T23:44:03.467Z,14.87
2022-12-29T23:46:37.125Z,14.90
2022-12-29T23:49:30.718Z,15.35
2022-12-29T23:52:03.336Z,16.05
2022-12-29T23:54:35.976Z,13.88
2022-12-29T23:57:08.290Z,14.60
2022-12-29T23:59:41.705Z,15.05
